createdAt,value
2018-03-21T00:02:21.453Z,10.93
2018-03-21T00:04:49.755Z,10.03
2018-03-21T00:07:18.035Z,10.77
2018-03-21T00:09:46.351Z,12.03
2018-03-21T00:12:14.620Z,8.33
2018-03-21T00:14:43.708Z,10.70
2018-03-21T00:17:11.967Z,13.03
2018-03-21T00:19:40.240Z,8.50
2018-03-21T00:22:08.501Z,9.90
2018-03-21T00:24:36.759Z,9.63
2018-03-21T00:27:05.041Z,8.50
2018-03-21T00:29:33.306Z,10.77
2018-03-21T00:32:01.587Z,7.70
2018-03-21T00:34:29.864Z,8.67
2018-03-21T00:36:58.136Z,10.70
2018-03-21T00:39:26.534Z,8.87
2018-03-21T00:41:54.844Z,7.40
2018-03-21T00:44:23.104Z,6.73
2018-03-21T00:46:51.400Z,9.37
2018-03-21T00:49:19.649Z,9.50
2018-03-21T00:51:47.944Z,10.30
2018-03-21T00:54:16.261Z,10.77
2018-03-21T00:56:44.558Z,10.10
2018-03-21T00:59:12.837Z,9.38
2018-03-21T01:01:41.160Z,10.93
2018-03-21T01:04:09.460Z,9.83
2018-03-21T01:06:38.007Z,17.90
2018-03-21T01:09:06.257Z,10.00
2018-03-21T01:11:34.539Z,12.07
2018-03-21T01:14:02.803Z,16.10
2018-03-21T01:16:31.103Z,11.90
2018-03-21T01:18:59.353Z,12.23
2018-03-21T01:21:27.640Z,11.50
2018-03-21T01:23:55.911Z,9.80
2018-03-21T01:26:24.193Z,14.50
2018-03-21T01:28:52.493Z,14.43
2018-03-21T01:31:20.762Z,14.77
2018-03-21T01:33:49.040Z,13.03
2018-03-21T01:36:17.297Z,13.60
2018-03-21T01:38:45.600Z,16.40
2018-03-21T01:41:13.868Z,15.60
2018-03-21T01:43:42.169Z,15.73
2018-03-21T01:46:10.436Z,14.48
2018-03-21T01:48:38.733Z,13.87
2018-03-21T01:51:07.048Z,16.80
2018-03-21T01:53:35.716Z,14.13
2018-03-21T01:56:04.757Z,16.73
2018-03-21T01:58:33.041Z,11.27
2018-03-21T02:01:01.309Z,8.83
2018-03-21T02:03:29.612Z,10.00
2018-03-21T02:05:57.885Z,11.20
2018-03-21T02:08:26.152Z,8.47
2018-03-21T02:10:54.415Z,10.07
2018-03-21T02:13:22.704Z,12.00
2018-03-21T02:15:50.977Z,10.33
2018-03-21T02:18:19.280Z,8.80
2018-03-21T02:20:47.551Z,11.03
2018-03-21T02:23:15.832Z,11.60
2018-03-21T02:25:44.121Z,11.63
2018-03-21T02:28:12.487Z,10.37
2018-03-21T02:30:40.851Z,12.60
2018-03-21T02:33:09.044Z,10.93
2018-03-21T02:35:37.327Z,9.30
2018-03-21T02:38:05.588Z,11.30
2018-03-21T02:40:33.891Z,11.25
2018-03-21T02:43:02.245Z,12.00
2018-03-21T02:45:30.523Z,10.07
2018-03-21T02:47:58.785Z,11.15
2018-03-21T02:50:27.104Z,12.10
2018-03-21T02:52:55.375Z,10.30
2018-03-21T02:55:23.654Z,11.00
2018-03-21T02:57:51.939Z,11.50
2018-03-21T03:00:20.209Z,8.93
2018-03-21T03:02:48.476Z,11.02
2018-03-21T03:05:16.792Z,9.97
2018-03-21T03:07:45.070Z,11.63
2018-03-21T03:10:13.358Z,10.63
2018-03-21T03:12:41.619Z,11.03
2018-03-21T03:15:09.931Z,13.63
2018-03-21T03:17:38.211Z,13.20
2018-03-21T03:20:06.491Z,14.63
2018-03-21T03:22:34.783Z,11.10
2018-03-21T03:25:03.059Z,17.63
2018-03-21T03:27:31.335Z,11.00
2018-03-21T03:29:59.600Z,12.43
2018-03-21T03:32:27.888Z,11.20
2018-03-21T03:34:56.163Z,11.97
2018-03-21T03:37:24.444Z,18.30
2018-03-21T03:39:52.723Z,12.63
2018-03-21T03:42:21.025Z,10.52
2018-03-21T03:44:49.295Z,11.40
2018-03-21T03:47:18.416Z,12.50
2018-03-21T03:49:46.679Z,8.70
2018-03-21T03:52:14.973Z,11.63
2018-03-21T03:54:43.227Z,12.97
2018-03-21T03:57:11.511Z,12.45
2018-03-21T03:59:39.788Z,11.50
2018-03-21T04:02:08.078Z,11.23
2018-03-21T04:04:36.345Z,13.50
2018-03-21T04:07:05.743Z,15.24
2018-03-21T04:09:34.012Z,9.40
2018-03-21T04:12:02.294Z,9.73
2018-03-21T04:14:30.585Z,11.47
2018-03-21T04:16:58.899Z,11.30
2018-03-21T04:19:27.168Z,10.48
2018-03-21T04:21:55.455Z,13.07
2018-03-21T04:24:23.714Z,11.20
2018-03-21T04:26:52.004Z,11.00
2018-03-21T04:29:20.571Z,10.65
2018-03-21T04:31:48.844Z,12.53
2018-03-21T04:34:17.609Z,12.50
2018-03-21T04:36:45.864Z,10.35
2018-03-21T04:39:14.162Z,9.67
2018-03-21T04:41:42.435Z,12.63
2018-03-21T04:44:10.714Z,15.50
2018-03-21T04:46:38.990Z,12.18
2018-03-21T04:49:07.271Z,12.75
2018-03-21T04:51:35.528Z,16.33
2018-03-21T04:54:04.757Z,12.50
2018-03-21T04:56:33.022Z,11.17
2018-03-21T04:59:01.310Z,14.10
2018-03-21T05:01:29.582Z,13.30
2018-03-21T05:03:57.864Z,11.12
2018-03-21T05:06:26.137Z,13.40
2018-03-21T05:08:54.418Z,13.37
2018-03-21T05:11:22.692Z,14.03
2018-03-21T05:13:50.983Z,12.67
2018-03-21T05:16:19.244Z,12.95
2018-03-21T05:18:47.551Z,17.23
2018-03-21T05:21:15.804Z,16.73
2018-03-21T05:23:44.093Z,12.97
2018-03-21T05:26:12.407Z,15.35
2018-03-21T05:28:40.784Z,12.50
2018-03-21T05:31:09.089Z,12.27
2018-03-21T05:33:37.346Z,12.13
2018-03-21T05:36:05.636Z,12.70
2018-03-21T05:38:33.927Z,17.70
2018-03-21T05:41:02.238Z,13.33
2018-03-21T05:43:30.513Z,13.68
2018-03-21T05:45:58.849Z,12.43
2018-03-21T05:48:27.160Z,15.13
2018-03-21T05:50:55.440Z,16.23
2018-03-21T05:53:23.737Z,16.00
2018-03-21T05:55:52.034Z,16.07
2018-03-21T05:58:20.320Z,19.10
2018-03-21T06:00:48.629Z,18.47
2018-03-21T06:03:16.895Z,14.70
2018-03-21T06:05:45.189Z,20.43
2018-03-21T06:08:13.452Z,16.23
2018-03-21T06:10:41.744Z,17.93
2018-03-21T06:13:10.015Z,19.02
2018-03-21T06:15:38.309Z,15.85
2018-03-21T06:18:06.581Z,18.13
2018-03-21T06:20:34.879Z,15.60
2018-03-21T06:23:03.209Z,17.67
2018-03-21T06:25:31.493Z,15.90
2018-03-21T06:27:59.794Z,16.47
2018-03-21T06:30:28.068Z,14.90
2018-03-21T06:32:56.387Z,15.77
2018-03-21T06:35:24.666Z,16.00
2018-03-21T06:37:53.046Z,28.30
2018-03-21T06:40:21.453Z,17.98
2018-03-21T06:42:49.824Z,20.27
2018-03-21T06:45:18.150Z,15.50
2018-03-21T06:47:46.465Z,18.00
2018-03-21T06:50:14.756Z,18.57
2018-03-21T06:52:43.064Z,20.70
2018-03-21T06:55:11.394Z,22.75
2018-03-21T06:57:39.700Z,23.50
2018-03-21T07:00:07.989Z,22.07
2018-03-21T07:02:36.358Z,20.40
2018-03-21T07:05:05.273Z,20.30
2018-03-21T07:07:33.586Z,20.27
2018-03-21T07:10:01.883Z,23.37
2018-03-21T07:12:30.409Z,19.13
2018-03-21T07:15:10.460Z,18.37
2018-03-21T07:17:38.781Z,21.77
2018-03-21T07:20:07.062Z,24.13
2018-03-21T07:22:35.336Z,19.87
2018-03-21T07:25:04.391Z,26.07
2018-03-21T07:27:32.663Z,20.03
2018-03-21T07:30:00.967Z,19.50
2018-03-21T07:32:29.268Z,18.33
2018-03-21T07:34:57.576Z,20.63
2018-03-21T07:37:25.855Z,17.50
2018-03-21T07:39:54.220Z,21.70
2018-03-21T07:42:22.509Z,18.50
2018-03-21T07:44:50.845Z,17.83
2018-03-21T07:47:19.122Z,21.25
2018-03-21T07:49:47.437Z,23.30
2018-03-21T07:52:15.760Z,17.23
2018-03-21T07:54:44.249Z,16.73
2018-03-21T07:57:12.537Z,15.63
2018-03-21T07:59:40.918Z,17.23
2018-03-21T08:02:09.212Z,16.67
2018-03-21T08:04:37.523Z,15.50
2018-03-21T08:07:05.875Z,15.73
2018-03-21T08:09:34.191Z,17.70
2018-03-21T08:12:02.470Z,15.87
2018-03-21T08:14:30.787Z,18.23
2018-03-21T08:16:59.076Z,14.20
2018-03-21T08:19:27.383Z,17.83
2018-03-21T08:21:55.712Z,16.80
2018-03-21T08:24:24.090Z,17.13
2018-03-21T08:26:52.348Z,14.83
2018-03-21T08:29:20.637Z,13.20
2018-03-21T08:31:48.943Z,12.70
2018-03-21T08:34:17.543Z,13.07
2018-03-21T08:36:45.866Z,11.53
2018-03-21T08:39:14.151Z,11.50
2018-03-21T08:41:42.484Z,8.35
2018-03-21T08:44:10.735Z,10.50
2018-03-21T08:46:39.032Z,14.52
2018-03-21T08:49:07.328Z,6.53
2018-03-21T08:51:35.662Z,5.80
2018-03-21T08:54:04.650Z,2.15
2018-03-21T08:56:33.084Z,6.40
2018-03-21T08:59:01.387Z,2.77
2018-03-21T09:01:29.767Z,4.27
2018-03-21T09:03:57.987Z,2.85
2018-03-21T09:06:26.280Z,1.70
2018-03-21T09:08:54.598Z,2.13
2018-03-21T09:11:22.889Z,4.20
2018-03-21T09:13:51.199Z,2.17
2018-03-21T09:16:19.492Z,4.03
2018-03-21T09:18:47.809Z,4.10
2018-03-21T09:21:16.107Z,4.33
2018-03-21T09:23:44.393Z,1.80
2018-03-21T09:26:12.697Z,6.93
2018-03-21T09:28:40.994Z,1.30
2018-03-21T09:31:09.351Z,1.70
2018-03-21T09:33:37.662Z,3.70
2018-03-21T09:36:05.960Z,4.30
2018-03-21T09:38:34.257Z,2.67
2018-03-21T09:41:02.637Z,2.00
2018-03-21T09:43:30.920Z,7.93
2018-03-21T09:45:59.212Z,5.70
2018-03-21T09:48:27.743Z,2.63
2018-03-21T09:50:55.963Z,4.80
2018-03-21T09:53:24.605Z,2.67
2018-03-21T09:55:52.874Z,5.80
2018-03-21T09:58:21.155Z,10.55
2018-03-21T10:00:49.483Z,2.00
2018-03-21T10:03:17.768Z,1.80
2018-03-21T10:05:46.036Z,3.95
2018-03-21T10:08:14.373Z,4.90
2018-03-21T10:10:42.662Z,8.90
2018-03-21T10:13:10.968Z,15.82
2018-03-21T10:15:39.252Z,4.40
2018-03-21T10:18:07.533Z,1.70
2018-03-21T10:20:35.808Z,7.70
2018-03-21T10:23:04.216Z,2.87
2018-03-21T10:25:32.496Z,3.13
2018-03-21T10:28:01.162Z,4.18
2018-03-21T10:30:29.489Z,7.23
2018-03-21T10:32:57.755Z,2.30
2018-03-21T10:35:26.200Z,3.93
2018-03-21T10:37:54.507Z,5.50
2018-03-21T10:40:22.816Z,2.30
2018-03-21T10:42:51.100Z,3.73
2018-03-21T10:45:19.539Z,1.97
2018-03-21T10:47:47.788Z,2.00
2018-03-21T10:50:16.090Z,2.50
2018-03-21T10:52:44.376Z,4.50
2018-03-21T10:55:12.684Z,21.30
2018-03-21T10:57:40.980Z,2.23
2018-03-21T11:00:09.323Z,3.72
2018-03-21T11:02:43.209Z,3.70
2018-03-21T11:05:11.525Z,6.90
2018-03-21T11:07:39.845Z,3.60
2018-03-21T11:10:08.130Z,2.90
2018-03-21T11:12:36.452Z,2.45
2018-03-21T11:15:05.384Z,2.73
2018-03-21T11:17:33.637Z,1.83
2018-03-21T11:20:01.907Z,7.80
2018-03-21T11:22:30.275Z,1.57
2018-03-21T11:24:58.539Z,1.30
2018-03-21T11:27:26.833Z,4.77
2018-03-21T11:29:55.148Z,1.63
2018-03-21T11:32:23.440Z,2.00
2018-03-21T11:34:51.744Z,1.37
2018-03-21T11:37:20.047Z,0.70
2018-03-21T11:39:48.355Z,1.00
2018-03-21T11:42:16.643Z,4.90
2018-03-21T11:44:44.934Z,0.83
2018-03-21T11:47:13.242Z,1.33
2018-03-21T11:49:41.575Z,1.77
2018-03-21T11:52:09.868Z,0.80
2018-03-21T11:54:38.145Z,8.57
2018-03-21T11:57:06.914Z,2.65
2018-03-21T11:59:35.168Z,2.77
2018-03-21T12:02:03.466Z,4.03
2018-03-21T12:04:31.756Z,1.00
2018-03-21T12:07:00.073Z,0.70
2018-03-21T12:09:28.633Z,11.97
2018-03-21T12:11:56.916Z,1.65
2018-03-21T12:14:25.196Z,3.27
2018-03-21T12:16:53.508Z,1.33
2018-03-21T12:19:21.789Z,1.20
2018-03-21T12:21:50.042Z,0.80
2018-03-21T12:24:18.328Z,11.35
2018-03-21T12:26:46.664Z,6.30
2018-03-21T12:29:15.000Z,4.00
2018-03-21T12:31:43.272Z,0.80
2018-03-21T12:34:11.576Z,2.93
2018-03-21T12:36:39.886Z,1.90
2018-03-21T12:39:08.176Z,1.10
2018-03-21T12:41:36.463Z,9.20
2018-03-21T12:44:05.488Z,1.20
2018-03-21T12:46:33.776Z,0.90
2018-03-21T12:49:02.089Z,2.73
2018-03-21T12:51:30.355Z,1.90
2018-03-21T12:53:58.662Z,5.27
2018-03-21T12:56:26.986Z,1.00
2018-03-21T12:58:55.233Z,1.13
2018-03-21T13:01:23.574Z,1.20
2018-03-21T13:03:52.676Z,2.00
2018-03-21T13:06:20.938Z,0.83
2018-03-21T13:08:49.237Z,1.33
2018-03-21T13:11:17.504Z,1.20
2018-03-21T13:13:46.093Z,1.00
2018-03-21T13:16:14.438Z,7.18
2018-03-21T13:18:43.323Z,4.47
2018-03-21T13:21:13.186Z,3.25
2018-03-21T13:23:41.478Z,1.20
2018-03-21T13:26:09.830Z,1.20
2018-03-21T13:28:38.110Z,4.40
2018-03-21T13:31:06.793Z,3.53
2018-03-21T13:33:35.128Z,1.63
2018-03-21T13:36:03.447Z,0.70
2018-03-21T13:38:31.759Z,3.78
2018-03-21T13:41:00.068Z,1.30
2018-03-21T13:43:28.380Z,2.93
2018-03-21T13:45:56.682Z,2.67
2018-03-21T13:48:24.994Z,3.00
2018-03-21T13:50:55.070Z,1.20
2018-03-21T13:53:23.497Z,7.30
2018-03-21T13:55:51.783Z,9.77
2018-03-21T13:58:20.565Z,1.30
2018-03-21T14:00:49.276Z,3.87
2018-03-21T14:03:17.571Z,5.95
2018-03-21T14:05:46.116Z,1.63
2018-03-21T14:08:14.430Z,9.48
2018-03-21T14:10:42.711Z,2.30
2018-03-21T14:13:10.994Z,1.33
2018-03-21T14:15:39.304Z,1.83
2018-03-21T14:18:07.623Z,1.70
2018-03-21T14:20:35.905Z,5.07
2018-03-21T14:23:04.473Z,1.90
2018-03-21T14:25:32.766Z,1.53
2018-03-21T14:28:01.101Z,6.20
2018-03-21T14:30:29.345Z,5.80
2018-03-21T14:32:57.759Z,1.80
2018-03-21T14:35:26.277Z,2.37
2018-03-21T14:37:55.381Z,8.00
2018-03-21T14:40:23.665Z,3.00
2018-03-21T14:42:51.994Z,3.10
2018-03-21T14:45:20.883Z,7.47
2018-03-21T14:47:49.203Z,2.47
2018-03-21T14:50:17.492Z,2.00
2018-03-21T14:52:45.805Z,2.30
2018-03-21T14:55:14.065Z,2.60
2018-03-21T14:57:42.411Z,2.23
2018-03-21T15:00:10.804Z,2.30
2018-03-21T15:02:39.064Z,4.80
2018-03-21T15:05:07.451Z,3.10
2018-03-21T15:07:35.732Z,10.17
2018-03-21T15:10:04.944Z,8.07
2018-03-21T15:12:33.192Z,7.53
2018-03-21T15:15:01.476Z,3.60
2018-03-21T15:17:29.828Z,12.30
2018-03-21T15:19:58.123Z,4.40
2018-03-21T15:22:26.413Z,7.67
2018-03-21T15:24:54.713Z,2.13
2018-03-21T15:27:22.989Z,3.93
2018-03-21T15:29:51.329Z,11.20
2018-03-21T15:32:19.613Z,2.07
2018-03-21T15:34:47.903Z,1.90
2018-03-21T15:37:16.208Z,3.28
2018-03-21T15:39:44.495Z,3.50
2018-03-21T15:42:12.767Z,3.10
2018-03-21T15:44:41.099Z,11.90
2018-03-21T15:47:09.372Z,3.00
2018-03-21T15:49:37.651Z,2.90
2018-03-21T15:52:05.919Z,8.70
2018-03-21T15:54:34.204Z,4.00
2018-03-21T15:57:02.584Z,4.90
2018-03-21T15:59:32.630Z,6.83
2018-03-21T16:02:01.400Z,4.43
2018-03-21T16:04:29.713Z,2.47
2018-03-21T16:06:58.063Z,1.70
2018-03-21T16:09:26.459Z,3.00
2018-03-21T16:11:54.722Z,29.70
2018-03-21T16:14:23.069Z,3.43
2018-03-21T16:16:51.378Z,5.43
2018-03-21T16:19:19.711Z,7.28
2018-03-21T16:21:47.976Z,5.60
2018-03-21T16:24:16.303Z,4.87
2018-03-21T16:26:44.603Z,16.80
2018-03-21T16:29:12.855Z,12.70
2018-03-21T16:31:41.211Z,2.55
2018-03-21T16:34:09.488Z,4.18
2018-03-21T16:36:37.848Z,1.70
2018-03-21T16:39:06.142Z,2.17
2018-03-21T16:41:35.121Z,4.33
2018-03-21T16:44:03.381Z,3.47
2018-03-21T16:46:32.160Z,5.20
2018-03-21T16:49:00.561Z,7.57
2018-03-21T16:51:28.873Z,3.40
2018-03-21T16:53:57.148Z,4.30
2018-03-21T16:56:25.548Z,11.43
2018-03-21T16:58:53.841Z,2.80
2018-03-21T17:01:22.180Z,5.10
2018-03-21T17:03:50.632Z,14.07
2018-03-21T17:06:18.942Z,2.70
2018-03-21T17:08:47.243Z,2.53
2018-03-21T17:11:15.512Z,6.90
2018-03-21T17:13:43.798Z,2.70
2018-03-21T17:16:12.235Z,7.93
2018-03-21T17:18:40.574Z,3.53
2018-03-21T17:21:08.817Z,3.83
2018-03-21T17:23:37.451Z,3.43
2018-03-21T17:26:05.738Z,10.60
2018-03-21T17:28:34.628Z,4.00
2018-03-21T17:31:02.963Z,6.17
2018-03-21T17:33:31.280Z,2.93
2018-03-21T17:35:59.933Z,4.13
2018-03-21T17:38:28.272Z,3.33
2018-03-21T17:40:56.555Z,12.23
2018-03-21T17:43:24.925Z,5.07
2018-03-21T17:45:53.202Z,16.73
2018-03-21T17:48:21.529Z,4.62
2018-03-21T17:50:49.792Z,5.43
2018-03-21T17:53:19.066Z,4.10
2018-03-21T17:55:47.324Z,9.20
2018-03-21T17:58:15.630Z,3.90
2018-03-21T18:00:43.932Z,2.70
2018-03-21T18:03:12.240Z,4.65
2018-03-21T18:05:40.519Z,3.13
2018-03-21T18:08:08.841Z,3.08
2018-03-21T18:10:37.091Z,3.60
2018-03-21T18:13:06.023Z,4.23
2018-03-21T18:15:34.330Z,4.00
2018-03-21T18:18:02.612Z,4.03
2018-03-21T18:20:30.952Z,4.83
2018-03-21T18:22:59.240Z,5.70
2018-03-21T18:25:27.489Z,6.30
2018-03-21T18:27:55.766Z,4.90
2018-03-21T18:30:24.115Z,7.63
2018-03-21T18:32:52.406Z,5.70
2018-03-21T18:35:20.779Z,8.37
2018-03-21T18:37:49.620Z,2.80
2018-03-21T18:40:17.902Z,4.53
2018-03-21T18:42:46.211Z,2.53
2018-03-21T18:45:14.553Z,3.10
2018-03-21T18:47:42.810Z,4.80
2018-03-21T18:50:11.159Z,2.50
2018-03-21T18:52:39.481Z,3.62
2018-03-21T18:55:07.885Z,4.60
2018-03-21T18:57:36.137Z,4.10
2018-03-21T19:00:04.990Z,3.37
2018-03-21T19:02:33.358Z,3.00
2018-03-21T19:05:01.967Z,6.40
2018-03-21T19:07:30.244Z,2.10
2018-03-21T19:09:58.566Z,2.57
2018-03-21T19:12:26.968Z,2.00
2018-03-21T19:14:55.282Z,3.30
2018-03-21T19:17:23.543Z,8.23
2018-03-21T19:19:51.886Z,3.83
2018-03-21T19:22:20.202Z,3.33
2018-03-21T19:24:48.509Z,2.00
2018-03-21T19:27:16.806Z,2.60
2018-03-21T19:29:45.070Z,2.70
2018-03-21T19:32:13.381Z,7.00
2018-03-21T19:34:42.400Z,1.77
2018-03-21T19:37:11.066Z,3.33
2018-03-21T19:39:39.368Z,4.77
2018-03-21T19:42:07.658Z,2.13
2018-03-21T19:44:36.845Z,8.80
2018-03-21T19:47:05.808Z,6.43
2018-03-21T19:49:34.107Z,7.17
2018-03-21T19:52:02.473Z,5.80
2018-03-21T19:54:30.758Z,4.25
2018-03-21T19:56:59.061Z,3.70
2018-03-21T19:59:27.353Z,2.30
2018-03-21T20:01:55.982Z,2.20
2018-03-21T20:04:24.343Z,2.13
2018-03-21T20:06:52.769Z,1.73
2018-03-21T20:09:21.016Z,5.32
2018-03-21T20:11:49.432Z,1.60
2018-03-21T20:14:17.697Z,1.63
2018-03-21T20:16:46.019Z,2.70
2018-03-21T20:19:14.347Z,3.80
2018-03-21T20:21:42.630Z,2.77
2018-03-21T20:24:10.889Z,4.00
2018-03-21T20:26:39.177Z,1.90
2018-03-21T20:29:07.485Z,2.60
2018-03-21T20:31:35.744Z,2.30
2018-03-21T20:34:05.066Z,2.10
2018-03-21T20:36:33.363Z,3.50
2018-03-21T20:39:01.675Z,2.00
2018-03-21T20:41:29.931Z,1.70
2018-03-21T20:43:59.114Z,3.20
2018-03-21T20:46:27.375Z,3.27
2018-03-21T20:48:55.705Z,2.03
2018-03-21T20:51:23.971Z,2.30
2018-03-21T20:53:52.290Z,1.73
2018-03-21T20:56:20.621Z,5.73
2018-03-21T20:58:48.907Z,2.43
2018-03-21T21:01:17.190Z,2.08
2018-03-21T21:03:45.513Z,1.90
2018-03-21T21:06:14.114Z,2.12
2018-03-21T21:08:42.665Z,2.50
2018-03-21T21:11:11.337Z,7.32
2018-03-21T21:13:39.645Z,4.67
2018-03-21T21:16:08.063Z,2.07
2018-03-21T21:18:36.378Z,2.20
2018-03-21T21:21:05.305Z,4.15
2018-03-21T21:23:33.668Z,2.20
2018-03-21T21:26:02.098Z,2.37
2018-03-21T21:28:30.870Z,3.00
2018-03-21T21:31:03.090Z,2.50
2018-03-21T21:33:31.524Z,2.70
2018-03-21T21:35:59.825Z,2.60
2018-03-21T21:38:28.111Z,2.10
2018-03-21T21:40:56.415Z,1.87
2018-03-21T21:43:24.728Z,1.80
2018-03-21T21:45:53.053Z,2.27
2018-03-21T21:48:21.335Z,2.17
2018-03-21T21:50:49.613Z,7.27
2018-03-21T21:53:17.913Z,4.13
2018-03-21T21:55:46.234Z,4.30
2018-03-21T21:58:14.576Z,6.67
2018-03-21T22:00:42.922Z,9.30
2018-03-21T22:03:11.196Z,4.17
2018-03-21T22:05:39.513Z,4.53
2018-03-21T22:08:07.919Z,4.70
2018-03-21T22:10:36.320Z,3.65
2018-03-21T22:13:04.939Z,2.80
2018-03-21T22:15:33.357Z,3.53
2018-03-21T22:18:01.611Z,3.53
2018-03-21T22:20:29.943Z,8.37
2018-03-21T22:22:58.237Z,3.12
2018-03-21T22:25:26.517Z,4.00
2018-03-21T22:27:54.769Z,4.57
2018-03-21T22:30:23.087Z,3.97
2018-03-21T22:32:51.348Z,4.97
2018-03-21T22:35:19.620Z,3.90
2018-03-21T22:37:47.968Z,6.30
2018-03-21T22:40:16.263Z,5.15
2018-03-21T22:42:44.631Z,3.70
2018-03-21T22:45:12.886Z,3.10
2018-03-21T22:47:41.186Z,4.10
2018-03-21T22:50:09.464Z,3.92
2018-03-21T22:52:37.744Z,3.50
2018-03-21T22:55:05.999Z,3.10
2018-03-21T22:57:34.320Z,3.13
2018-03-21T23:00:02.583Z,2.80
2018-03-21T23:02:30.891Z,7.23
2018-03-21T23:04:59.152Z,5.63
2018-03-21T23:07:27.515Z,4.00
2018-03-21T23:09:55.777Z,3.80
2018-03-21T23:12:24.299Z,4.33
2018-03-21T23:14:52.612Z,2.90
2018-03-21T23:17:20.914Z,3.58
2018-03-21T23:19:49.586Z,6.03
2018-03-21T23:22:17.946Z,3.70
2018-03-21T23:24:46.259Z,4.50
2018-03-21T23:27:14.536Z,4.70
2018-03-21T23:29:42.811Z,3.33
2018-03-21T23:32:11.091Z,3.20
2018-03-21T23:34:39.407Z,2.80
2018-03-21T23:37:07.756Z,2.43
2018-03-21T23:39:36.091Z,2.97
2018-03-21T23:42:04.408Z,2.33
2018-03-21T23:44:32.732Z,3.53
2018-03-21T23:47:01.035Z,2.50
2018-03-21T23:49:29.403Z,2.03
2018-03-21T23:51:57.685Z,2.20
2018-03-21T23:54:25.979Z,3.30
2018-03-21T23:56:54.269Z,7.27
2018-03-21T23:59:22.532Z,3.60
